Time;durP1;ratioP1;P1;durP2;ratioP2;P2;SDS_P1;SDS_P2;PMS_P1;PMS_P2;Temp;Humidity;BMP_temperature;BMP_pressure;BME280_temperature;BME280_humidity;BME280_pressure;Samples;Min_cycle;Max_cycle;Signal;HPM_P1;HPM_P2
2021/07/06 00:01:07;;;;;;;8.50;7.70;;;23.70;67.80;;;;;;5055744;28;20505;-82
2021/07/06 00:03:33;;;;;;;8.48;7.68;;;23.70;67.80;;;;;;5055681;28;20176;-83
2021/07/06 00:05:58;;;;;;;7.78;7.07;;;23.70;67.80;;;;;;5055536;28;20185;-84
2021/07/06 00:08:24;;;;;;;7.70;7.00;;;23.70;67.80;;;;;;5072309;28;20165;-83
2021/07/06 00:10:50;;;;;;;8.43;7.63;;;23.70;67.80;;;;;;5073750;28;20161;-82
2021/07/06 00:13:16;;;;;;;8.02;7.30;;;23.60;67.90;;;;;;5072201;28;20153;-82
2021/07/06 00:15:43;;;;;;;8.40;7.60;;;23.70;67.90;;;;;;5055701;28;20160;-82
2021/07/06 00:18:09;;;;;;;9.02;8.13;;;23.70;67.80;;;;;;5055344;28;20223;-83
2021/07/06 00:20:37;;;;;;;8.25;7.45;;;23.70;67.90;;;;;;5056039;28;20253;-81
2021/07/06 00:23:05;;;;;;;8.38;7.57;;;23.70;67.90;;;;;;5054777;28;20643;-82
2021/07/06 00:25:32;;;;;;;8.73;7.93;;;23.70;68.00;;;;;;5054890;28;20268;-82
2021/07/06 00:28:00;;;;;;;8.48;7.68;;;23.60;67.90;;;;;;5038175;28;20259;-81
2021/07/06 00:30:26;;;;;;;8.43;7.63;;;23.60;67.80;;;;;;5037881;28;20195;-83
2021/07/06 00:32:54;;;;;;;8.43;7.60;;;23.60;67.90;;;;;;5071917;28;20161;-83
2021/07/06 00:35:21;;;;;;;8.32;7.53;;;23.60;67.90;;;;;;5038297;28;20177;-82
2021/07/06 00:37:49;;;;;;;8.05;7.30;;;23.60;68.00;;;;;;5037459;28;20266;-83
2021/07/06 00:40:16;;;;;;;8.27;7.47;;;23.70;68.00;;;;;;5054473;28;20188;-82
2021/07/06 00:42:44;;;;;;;8.07;7.30;;;23.60;68.00;;;;;;5038027;28;20235;-82
2021/07/06 00:45:11;;;;;;;8.32;7.53;;;23.60;67.90;;;;;;5054694;28;20173;-82
2021/07/06 00:47:37;;;;;;;8.57;7.78;;;23.60;68.00;;;;;;5056204;28;20185;-82
2021/07/06 00:50:06;;;;;;;7.97;7.18;;;23.60;68.00;;;;;;5059497;28;20146;-83
2021/07/06 00:52:31;;;;;;;7.65;6.95;;;23.60;68.00;;;;;;5075956;28;20639;-82
2021/07/06 00:54:57;;;;;;;8.40;7.60;;;23.60;67.90;;;;;;5076325;28;20157;-84
2021/07/06 00:57:30;;;;;;;8.82;7.93;;;23.60;67.90;;;;;;5075761;28;20279;-82
2021/07/06 00:59:58;;;;;;;7.82;7.03;;;23.60;68.10;;;;;;5060247;28;20160;-83
2021/07/06 01:02:24;;;;;;;8.20;7.40;;;23.60;68.00;;;;;;5076155;28;20675;-82
2021/07/06 01:04:50;;;;;;;8.70;7.80;;;23.60;68.00;;;;;;5075730;28;20192;-81
2021/07/06 01:07:17;;;;;;;8.45;7.63;;;23.60;68.00;;;;;;5059164;28;20161;-84
2021/07/06 01:09:42;;;;;;;8.43;7.63;;;23.60;68.10;;;;;;5059025;28;20212;-82
2021/07/06 01:12:10;;;;;;;8.55;7.75;;;23.60;68.00;;;;;;5075691;28;20660;-82
2021/07/06 01:14:36;;;;;;;8.00;7.22;;;23.60;68.00;;;;;;5059350;28;20272;-84
2021/07/06 01:17:03;;;;;;;8.55;7.75;;;23.60;68.00;;;;;;5075440;28;20193;-82
2021/07/06 01:19:28;;;;;;;8.35;7.55;;;23.60;68.00;;;;;;5075265;28;20150;-83
2021/07/06 01:21:54;;;;;;;8.40;7.60;;;23.50;68.00;;;;;;5075414;28;20157;-83
2021/07/06 01:24:20;;;;;;;9.15;8.25;;;23.60;68.00;;;;;;5075417;28;20158;-83
2021/07/06 01:26:51;;;;;;;8.73;7.93;;;23.60;68.10;;;;;;5075233;28;20176;-82
2021/07/06 01:29:17;;;;;;;8.27;7.47;;;23.60;68.20;;;;;;5058943;28;20546;-82
2021/07/06 01:31:50;;;;;;;8.70;7.90;;;23.60;68.10;;;;;;5076387;28;20142;-83
2021/07/06 01:34:16;;;;;;;8.60;7.80;;;23.60;69.00;;;;;;5076920;28;20165;-81
2021/07/06 01:36:42;;;;;;;8.75;7.95;;;23.60;68.10;;;;;;5058653;28;20185;-83
2021/07/06 01:39:08;;;;;;;8.30;7.50;;;23.60;68.10;;;;;;5058919;28;20154;-81
2021/07/06 01:41:39;;;;;;;8.85;7.95;;;23.60;68.10;;;;;;5058459;28;20157;-81
2021/07/06 01:44:16;;;;;;;8.43;7.63;;;23.60;68.20;;;;;;5058627;28;20154;-82
2021/07/06 01:46:42;;;;;;;8.95;8.10;;;23.60;68.20;;;;;;5075031;28;20168;-81
2021/07/06 01:49:12;;;;;;;8.82;7.93;;;23.50;68.10;;;;;;5076417;28;20244;-81
2021/07/06 01:51:39;;;;;;;8.15;7.35;;;23.60;68.20;;;;;;5058780;28;20169;-81
2021/07/06 01:54:05;;;;;;;8.57;7.78;;;23.50;68.10;;;;;;5058314;28;20221;-81
2021/07/06 01:56:32;;;;;;;9.05;8.15;;;23.50;68.10;;;;;;5057895;28;20292;-84
2021/07/06 01:58:58;;;;;;;9.18;8.27;;;23.50;68.20;;;;;;5057541;28;20166;-83
2021/07/06 02:01:24;;;;;;;8.57;7.78;;;23.50;68.10;;;;;;5074669;28;20639;-84
2021/07/06 02:03:50;;;;;;;8.43;7.63;;;23.60;68.20;;;;;;5074688;28;20158;-84
2021/07/06 02:06:16;;;;;;;8.63;7.82;;;23.50;68.10;;;;;;5058060;28;20161;-81
2021/07/06 02:08:42;;;;;;;8.70;7.82;;;23.50;68.10;;;;;;5058040;28;20157;-82
2021/07/06 02:11:08;;;;;;;8.50;7.70;;;23.60;68.20;;;;;;5057844;28;20256;-82
2021/07/06 02:13:34;;;;;;;8.95;8.05;;;23.50;68.20;;;;;;5075727;28;20162;-83
2021/07/06 02:16:00;;;;;;;8.70;7.90;;;23.50;68.20;;;;;;5057604;28;20207;-81
2021/07/06 02:18:27;;;;;;;8.00;7.20;;;23.50;68.10;;;;;;5057765;28;20611;-81
2021/07/06 02:20:55;;;;;;;8.60;7.80;;;23.50;68.10;;;;;;5057927;28;20190;-82
2021/07/06 02:23:22;;;;;;;8.93;7.95;;;23.50;68.10;;;;;;5074348;28;20154;-82
2021/07/06 02:25:48;;;;;;;8.48;7.68;;;23.50;68.30;;;;;;5057681;28;20192;-83
2021/07/06 02:28:14;;;;;;;8.50;7.70;;;23.50;68.30;;;;;;5074272;28;20153;-84
2021/07/06 02:30:40;;;;;;;8.80;7.90;;;23.50;68.20;;;;;;5057600;28;20168;-83
2021/07/06 02:33:07;;;;;;;8.70;7.82;;;23.50;68.20;;;;;;5057419;28;20162;-82
2021/07/06 02:35:33;;;;;;;9.27;8.38;;;23.50;68.40;;;;;;5056768;28;20604;-82
2021/07/06 02:38:00;;;;;;;8.82;7.97;;;23.50;68.30;;;;;;5074029;28;20268;-82
2021/07/06 02:40:28;;;;;;;9.07;8.18;;;23.50;68.30;;;;;;5056350;28;20188;-81
2021/07/06 02:42:56;;;;;;;8.57;7.78;;;23.50;68.30;;;;;;5023655;28;20208;-82
2021/07/06 02:45:22;;;;;;;8.45;7.65;;;23.50;68.30;;;;;;5056435;28;20196;-81
2021/07/06 02:47:49;;;;;;;8.38;7.57;;;23.40;68.30;;;;;;5074172;28;20162;-82
2021/07/06 02:50:16;;;;;;;8.88;8.00;;;23.50;68.40;;;;;;5056152;28;20220;-84
2021/07/06 02:52:41;;;;;;;8.88;7.97;;;23.40;68.30;;;;;;5057125;28;20161;-82
2021/07/06 02:55:09;;;;;;;8.70;7.90;;;23.50;68.30;;;;;;5090313;28;20161;-83
2021/07/06 02:57:36;;;;;;;8.95;8.13;;;23.50;68.40;;;;;;5056140;28;20632;-83
2021/07/06 03:00:25;;;;;;;9.25;8.30;;;23.40;68.40;;;;;;5057546;28;20170;-84
2021/07/06 03:02:53;;;;;;;9.02;8.13;;;23.40;68.40;;;;;;5046189;28;20173;-81
2021/07/06 03:05:21;;;;;;;8.98;8.10;;;23.40;68.40;;;;;;5073614;28;20154;-83
2021/07/06 03:07:49;;;;;;;8.68;7.80;;;23.40;68.40;;;;;;5055988;28;20174;-84
2021/07/06 03:10:19;;;;;;;8.45;7.65;;;23.40;68.40;;;;;;5055010;28;20667;-82
2021/07/06 03:12:45;;;;;;;8.48;7.68;;;23.40;68.40;;;;;;5023502;28;20192;-83
2021/07/06 03:15:14;;;;;;;9.25;8.32;;;23.40;68.40;;;;;;5073267;28;20553;-81
2021/07/06 03:17:41;;;;;;;8.95;8.07;;;23.40;68.40;;;;;;5056207;28;20743;-81
2021/07/06 03:20:09;;;;;;;8.48;7.68;;;23.40;68.40;;;;;;5055814;28;20556;-83
2021/07/06 03:22:35;;;;;;;8.65;7.82;;;23.40;68.40;;;;;;5072423;28;20180;-81
2021/07/06 03:25:04;;;;;;;9.10;8.20;;;23.50;68.40;;;;;;5022719;28;20181;-81
2021/07/06 03:27:30;;;;;;;8.70;7.90;;;23.40;69.20;;;;;;5056099;28;20185;-82
2021/07/06 03:29:55;;;;;;;8.95;8.05;;;23.40;68.40;;;;;;5073028;28;20211;-81
2021/07/06 03:32:21;;;;;;;8.75;7.95;;;23.40;68.40;;;;;;5074155;28;20154;-81
2021/07/06 03:34:47;;;;;;;8.25;7.45;;;23.40;69.20;;;;;;5072839;28;20165;-81
2021/07/06 03:37:12;;;;;;;8.30;7.50;;;23.40;68.40;;;;;;5056311;28;20250;-83
2021/07/06 03:39:38;;;;;;;8.30;7.50;;;23.40;68.50;;;;;;5072884;28;20149;-81
2021/07/06 03:42:05;;;;;;;9.15;8.25;;;23.40;68.40;;;;;;5056596;28;20612;-84
2021/07/06 03:44:31;;;;;;;8.93;8.13;;;23.40;68.50;;;;;;5073956;28;20260;-83
2021/07/06 03:46:57;;;;;;;8.60;7.80;;;23.40;68.50;;;;;;5057161;28;20559;-81
2021/07/06 03:49:22;;;;;;;8.63;7.82;;;23.40;68.50;;;;;;5055954;28;20200;-84
2021/07/06 03:51:50;;;;;;;8.80;8.00;;;23.40;68.50;;;;;;5073944;28;20620;-83
2021/07/06 03:54:18;;;;;;;9.20;8.20;;;23.40;68.40;;;;;;5055005;28;20256;-82
2021/07/06 03:56:45;;;;;;;8.93;8.02;;;23.40;68.40;;;;;;5055210;28;20209;-81
2021/07/06 03:59:14;;;;;;;9.00;8.10;;;23.30;68.40;;;;;;5055193;28;20205;-81
2021/07/06 04:01:39;;;;;;;9.10;8.20;;;23.40;68.40;;;;;;5055156;28;20227;-82
2021/07/06 04:04:07;;;;;;;8.98;8.07;;;23.40;68.50;;;;;;5073996;28;20161;-83
2021/07/06 04:06:34;;;;;;;9.02;8.18;;;23.40;68.50;;;;;;5055003;28;20598;-83
2021/07/06 04:09:02;;;;;;;8.48;7.68;;;23.40;68.70;;;;;;5021521;28;20529;-81
2021/07/06 04:11:29;;;;;;;8.63;7.82;;;23.40;68.70;;;;;;5038441;28;20185;-81
2021/07/06 04:13:56;;;;;;;9.32;8.38;;;23.40;68.70;;;;;;5054854;28;20177;-84
2021/07/06 04:16:22;;;;;;;8.73;7.82;;;23.40;69.00;;;;;;5054496;28;20282;-83
2021/07/06 04:18:47;;;;;;;7.90;7.20;;;23.50;69.60;;;;;;5072199;28;20632;-81
2021/07/06 04:21:13;;;;;;;8.13;7.32;;;23.50;70.30;;;;;;5071981;28;20256;-82
2021/07/06 04:23:39;;;;;;;8.27;7.30;;;23.60;70.50;;;;;;5055512;28;20180;-84
2021/07/06 04:26:06;;;;;;;7.93;7.22;;;23.50;70.80;;;;;;5072154;28;20198;-82
2021/07/06 04:28:31;;;;;;;7.53;6.82;;;23.50;71.50;;;;;;5056057;28;20161;-82
2021/07/06 04:30:58;;;;;;;7.95;7.15;;;23.50;71.90;;;;;;5055574;28;20157;-81
2021/07/06 04:33:25;;;;;;;8.00;7.20;;;23.40;72.10;;;;;;5072063;28;20631;-84
2021/07/06 04:35:50;;;;;;;8.63;7.72;;;23.40;72.50;;;;;;5054306;28;20647;-84
2021/07/06 04:38:18;;;;;;;8.13;7.32;;;23.50;72.70;;;;;;5072032;28;20162;-82
2021/07/06 04:40:43;;;;;;;7.90;7.10;;;23.50;72.80;;;;;;5054482;28;20189;-84
2021/07/06 04:43:09;;;;;;;7.60;6.90;;;23.50;73.50;;;;;;5071974;28;20154;-82
2021/07/06 04:45:35;;;;;;;7.43;6.72;;;23.40;73.80;;;;;;5071941;28;20202;-83
2021/07/06 04:48:01;;;;;;;7.55;6.80;;;23.40;74.60;;;;;;5055223;28;20164;-83
2021/07/06 04:50:27;;;;;;;7.07;6.38;;;23.40;76.00;;;;;;5038876;28;20173;-83
2021/07/06 04:52:53;;;;;;;7.50;6.80;;;23.50;75.10;;;;;;5071657;28;20696;-81
2021/07/06 04:55:19;;;;;;;7.95;7.15;;;23.50;75.00;;;;;;5055107;28;20215;-85
2021/07/06 04:57:45;;;;;;;7.28;6.57;;;23.50;75.40;;;;;;5055688;28;20181;-81
2021/07/06 05:00:11;;;;;;;7.30;6.60;;;23.50;75.60;;;;;;5055176;28;20154;-82
2021/07/06 05:02:37;;;;;;;7.25;6.55;;;23.40;75.90;;;;;;5071750;28;20154;-82
2021/07/06 05:05:04;;;;;;;7.30;6.40;;;23.40;76.20;;;;;;5071737;28;20160;-85
2021/07/06 05:07:30;;;;;;;6.65;6.05;;;23.40;77.60;;;;;;5055073;28;20539;-84
2021/07/06 05:09:56;;;;;;;7.47;6.78;;;23.40;77.30;;;;;;5071995;28;20165;-82
2021/07/06 05:12:23;;;;;;;7.90;7.10;;;23.40;77.00;;;;;;5071714;28;20554;-84
2021/07/06 05:14:49;;;;;;;7.60;6.90;;;23.40;77.10;;;;;;5071489;28;20162;-82
2021/07/06 05:17:14;;;;;;;6.88;6.28;;;23.40;76.90;;;;;;5071606;28;20181;-83
2021/07/06 05:19:40;;;;;;;7.18;6.47;;;23.30;77.90;;;;;;5054934;28;20154;-81
2021/07/06 05:22:06;;;;;;;7.60;6.70;;;23.30;78.40;;;;;;5071619;28;20244;-83
2021/07/06 05:24:31;;;;;;;7.65;6.85;;;23.40;78.20;;;;;;5055177;28;20165;-81
2021/07/06 05:26:57;;;;;;;7.50;6.80;;;23.40;78.40;;;;;;5071570;28;20156;-84
2021/07/06 05:29:23;;;;;;;7.88;7.10;;;23.40;78.10;;;;;;5054914;28;20229;-81
2021/07/06 05:31:48;;;;;;;7.72;6.93;;;23.40;77.60;;;;;;5071418;28;20667;-82
2021/07/06 05:34:14;;;;;;;7.10;6.40;;;23.50;77.80;;;;;;5073104;28;20530;-82
2021/07/06 05:36:40;;;;;;;7.55;6.85;;;23.50;77.20;;;;;;5058356;28;20284;-83
2021/07/06 05:39:07;;;;;;;7.70;7.00;;;23.50;77.20;;;;;;5076350;28;20590;-83
2021/07/06 05:41:33;;;;;;;7.88;7.18;;;23.50;76.80;;;;;;5076317;28;20153;-85
2021/07/06 05:43:59;;;;;;;7.82;7.13;;;23.50;76.70;;;;;;5076130;28;20161;-83
2021/07/06 05:46:32;;;;;;;7.28;6.57;;;23.60;76.60;;;;;;5075323;28;20161;-82
2021/07/06 05:48:58;;;;;;;7.10;6.40;;;23.70;76.00;;;;;;5057802;28;20181;-81
2021/07/06 05:51:24;;;;;;;7.72;7.00;;;23.70;75.80;;;;;;5074962;28;20161;-83
2021/07/06 05:53:50;;;;;;;7.90;7.10;;;23.80;74.90;;;;;;5091717;28;20225;-83
2021/07/06 05:56:17;;;;;;;6.97;6.30;;;23.70;75.20;;;;;;5075008;28;20224;-83
2021/07/06 05:58:43;;;;;;;7.57;6.88;;;23.70;75.10;;;;;;5074854;28;20161;-84
2021/07/06 06:01:10;;;;;;;7.72;6.95;;;23.70;74.90;;;;;;5074790;28;20602;-81
2021/07/06 06:03:35;;;;;;;6.55;5.95;;;23.70;75.00;;;;;;5057976;28;20539;-81
2021/07/06 06:06:02;;;;;;;7.63;6.93;;;23.70;75.00;;;;;;5058276;28;20173;-84
2021/07/06 06:08:28;;;;;;;7.95;7.25;;;23.70;74.80;;;;;;5058901;28;20185;-84
2021/07/06 06:10:53;;;;;;;7.70;7.00;;;23.70;74.80;;;;;;5075177;28;20165;-83
2021/07/06 06:13:19;;;;;;;6.88;6.28;;;23.60;74.90;;;;;;5058356;28;20162;-81
2021/07/06 06:15:45;;;;;;;8.02;7.25;;;23.70;74.80;;;;;;5058627;28;20165;-82
2021/07/06 06:18:10;;;;;;;7.15;6.45;;;23.70;74.50;;;;;;5074958;28;20272;-82
2021/07/06 06:20:40;;;;;;;8.60;7.80;;;23.70;74.90;;;;;;5057684;28;20169;-82
2021/07/06 06:23:07;;;;;;;7.60;6.90;;;23.70;74.70;;;;;;5040451;28;20181;-82
2021/07/06 06:25:33;;;;;;;7.90;7.13;;;23.60;74.80;;;;;;5074325;28;20252;-82
2021/07/06 06:27:59;;;;;;;6.95;6.25;;;23.70;74.80;;;;;;5075413;28;20161;-81
2021/07/06 06:30:25;;;;;;;8.07;7.30;;;23.80;74.20;;;;;;5075678;28;20162;-83
2021/07/06 06:32:56;;;;;;;7.30;6.60;;;23.80;74.20;;;;;;5084921;28;20148;-82
2021/07/06 06:35:22;;;;;;;7.78;6.97;;;23.80;74.60;;;;;;5041212;28;20188;-83
2021/07/06 06:37:48;;;;;;;7.13;6.43;;;23.80;74.50;;;;;;5074707;28;20188;-81
2021/07/06 06:40:14;;;;;;;8.13;7.32;;;23.80;74.60;;;;;;5091372;28;20223;-81
2021/07/06 06:42:40;;;;;;;8.05;7.25;;;23.70;75.00;;;;;;5058069;28;20177;-82
2021/07/06 06:45:07;;;;;;;7.75;7.05;;;23.60;75.40;;;;;;5077308;28;20248;-82
2021/07/06 06:47:34;;;;;;;8.23;7.43;;;23.50;75.50;;;;;;5059942;28;20177;-82
2021/07/06 06:50:00;;;;;;;8.32;7.53;;;23.60;75.20;;;;;;5076673;28;20156;-83
2021/07/06 06:52:27;;;;;;;8.00;7.20;;;23.70;74.80;;;;;;5063857;28;20173;-82
2021/07/06 06:54:55;;;;;;;7.43;6.72;;;23.80;74.60;;;;;;5061506;28;20181;-87
2021/07/06 06:57:24;;;;;;;7.78;6.88;;;23.80;74.60;;;;;;5026938;28;20217;-80
2021/07/06 06:59:52;;;;;;;8.57;7.78;;;23.80;74.30;;;;;;5055797;28;20181;-81
2021/07/06 07:02:20;;;;;;;8.30;7.55;;;23.80;74.50;;;;;;5055810;28;20197;-79
2021/07/06 07:04:49;;;;;;;8.30;7.50;;;23.80;74.30;;;;;;5057005;28;20199;-82
2021/07/06 07:07:14;;;;;;;8.25;7.47;;;23.80;74.50;;;;;;5057120;28;20150;-83
2021/07/06 07:09:42;;;;;;;8.38;7.55;;;23.80;74.80;;;;;;5056667;28;20280;-83
2021/07/06 07:12:08;;;;;;;7.85;7.07;;;23.70;74.80;;;;;;5039276;28;20181;-81
2021/07/06 07:14:34;;;;;;;8.48;7.68;;;23.80;74.90;;;;;;5056868;28;20146;-79
2021/07/06 07:17:00;;;;;;;8.48;7.63;;;23.70;74.80;;;;;;5056920;28;20185;-81
2021/07/06 07:19:26;;;;;;;7.88;7.07;;;23.80;74.70;;;;;;5056734;28;20245;-79
2021/07/06 07:21:51;;;;;;;8.68;7.78;;;23.80;74.60;;;;;;5056787;28;20222;-80
2021/07/06 07:24:18;;;;;;;7.88;7.15;;;23.80;74.50;;;;;;5056867;28;20169;-81
2021/07/06 07:26:45;;;;;;;7.78;7.07;;;23.80;74.70;;;;;;5072206;28;20260;-80
2021/07/06 07:29:12;;;;;;;7.90;7.20;;;23.80;74.50;;;;;;5055474;28;20640;-78
2021/07/06 07:31:39;;;;;;;8.43;7.60;;;23.80;74.40;;;;;;5039590;28;20250;-81
2021/07/06 07:34:05;;;;;;;9.95;7.55;;;23.80;74.30;;;;;;5039295;28;20182;-79
2021/07/06 07:36:31;;;;;;;7.63;6.93;;;23.80;74.30;;;;;;5038818;28;20208;-81
2021/07/06 07:38:57;;;;;;;8.02;7.25;;;23.80;74.20;;;;;;5056421;28;20230;-83
2021/07/06 07:41:23;;;;;;;8.13;7.30;;;23.80;74.00;;;;;;5072906;28;20223;-78
2021/07/06 07:43:53;;;;;;;8.25;7.45;;;23.80;74.10;;;;;;5072684;28;20616;-79
2021/07/06 07:46:20;;;;;;;7.55;6.75;;;23.80;74.50;;;;;;5072716;28;20216;-80
2021/07/06 07:48:46;;;;;;;8.25;7.45;;;23.70;74.50;;;;;;5056581;28;20157;-81
2021/07/06 07:51:13;;;;;;;8.25;7.35;;;23.70;74.70;;;;;;5055902;28;20150;-78
2021/07/06 07:53:38;;;;;;;7.90;7.10;;;23.70;74.70;;;;;;5072215;28;20303;-79
2021/07/06 07:56:04;;;;;;;8.05;7.13;;;23.70;74.90;;;;;;5038630;28;20258;-81
2021/07/06 07:58:30;;;;;;;8.52;7.72;;;23.70;74.70;;;;;;5055720;28;20651;-79
2021/07/06 08:00:56;;;;;;;8.77;7.32;;;23.80;74.50;;;;;;5072307;28;20168;-80
2021/07/06 08:03:22;;;;;;;9.00;8.00;;;23.80;74.40;;;;;;5055700;28;20165;-79
2021/07/06 08:05:47;;;;;;;11.20;8.32;;;23.70;74.50;;;;;;5055482;28;20157;-82
2021/07/06 08:08:14;;;;;;;8.93;7.80;;;23.70;74.40;;;;;;5055578;28;20180;-78
2021/07/06 08:10:40;;;;;;;8.93;8.00;;;23.80;74.30;;;;;;5055583;28;20165;-81
2021/07/06 08:13:06;;;;;;;8.95;8.05;;;23.70;74.30;;;;;;5055616;28;20162;-81
2021/07/06 08:15:32;;;;;;;9.63;8.68;;;23.80;74.20;;;;;;5038913;28;20539;-79
2021/07/06 08:17:58;;;;;;;9.10;8.07;;;23.80;73.90;;;;;;5055552;28;20189;-81
2021/07/06 08:20:23;;;;;;;9.60;8.60;;;23.80;74.00;;;;;;5055966;28;20193;-80
2021/07/06 08:22:51;;;;;;;9.13;7.93;;;23.80;74.10;;;;;;5055588;28;20157;-80
2021/07/06 08:25:17;;;;;;;8.73;7.93;;;23.80;74.00;;;;;;5040007;28;20256;-79
2021/07/06 08:27:42;;;;;;;8.65;7.78;;;23.80;74.10;;;;;;5055968;28;20192;-82
2021/07/06 08:30:09;;;;;;;8.68;7.78;;;23.80;74.00;;;;;;5039073;28;20172;-82
2021/07/06 08:32:35;;;;;;;9.07;8.00;;;23.90;73.50;;;;;;5055320;28;20200;-81
2021/07/06 08:35:01;;;;;;;8.20;7.40;;;23.90;73.80;;;;;;5055138;28;20188;-81
2021/07/06 08:37:27;;;;;;;8.80;7.90;;;23.90;73.70;;;;;;5054915;28;20193;-80
2021/07/06 08:39:52;;;;;;;8.13;7.32;;;23.90;73.60;;;;;;5055490;28;20170;-81
2021/07/06 08:42:18;;;;;;;9.30;8.35;;;23.90;73.40;;;;;;5055429;28;20162;-80
2021/07/06 08:44:44;;;;;;;10.45;8.00;;;23.90;73.30;;;;;;5055095;28;20154;-79
2021/07/06 08:47:09;;;;;;;9.57;8.60;;;23.90;73.30;;;;;;5055340;28;20161;-80
2021/07/06 08:49:35;;;;;;;9.23;7.20;;;23.90;73.10;;;;;;5072958;28;20176;-80
2021/07/06 08:52:02;;;;;;;9.75;8.18;;;24.00;72.70;;;;;;5055267;28;20154;-81
2021/07/06 08:54:28;;;;;;;9.15;8.32;;;24.00;72.80;;;;;;5071432;28;20228;-80
2021/07/06 08:56:54;;;;;;;8.95;8.05;;;23.90;73.20;;;;;;5071432;28;20270;-80
2021/07/06 08:59:19;;;;;;;8.75;7.90;;;23.90;73.60;;;;;;5071683;28;20237;-80
2021/07/06 09:01:46;;;;;;;9.25;8.35;;;23.90;73.00;;;;;;5055212;28;20169;-81
2021/07/06 09:04:12;;;;;;;9.07;8.23;;;23.90;73.20;;;;;;5054917;28;20191;-80
2021/07/06 09:06:55;;;;;;;10.23;9.23;;;23.90;73.30;;;;;;5055020;28;20520;-80
2021/07/06 09:09:24;;;;;;;10.15;8.50;;;23.90;73.30;;;;;;5056968;28;20165;-78
2021/07/06 09:11:52;;;;;;;9.15;8.25;;;24.00;72.80;;;;;;5076811;28;20162;-78
2021/07/06 09:14:17;;;;;;;9.55;8.65;;;23.90;72.90;;;;;;5059275;28;20188;-80
2021/07/06 09:16:43;;;;;;;9.32;8.43;;;23.90;73.20;;;;;;5058690;28;20656;-80
2021/07/06 09:19:18;;;;;;;8.85;7.95;;;23.90;73.20;;;;;;5042479;28;20185;-79
2021/07/06 09:21:44;;;;;;;8.15;7.35;;;23.90;72.90;;;;;;5059087;28;20156;-80
2021/07/06 09:24:24;;;;;;;9.07;8.18;;;24.00;72.60;;;;;;5058693;28;20161;-79
2021/07/06 09:26:50;;;;;;;9.63;8.63;;;24.10;71.90;;;;;;5059252;28;20184;-80
2021/07/06 09:29:22;;;;;;;9.23;8.30;;;24.20;72.10;;;;;;5058720;28;20257;-79
2021/07/06 09:31:48;;;;;;;9.38;7.88;;;24.10;72.00;;;;;;5075277;28;20160;-80
2021/07/06 09:34:13;;;;;;;8.95;8.07;;;24.30;71.90;;;;;;5058536;28;20161;-80
2021/07/06 09:36:43;;;;;;;10.23;8.90;;;24.20;71.40;;;;;;5075029;28;20201;-79
2021/07/06 09:39:25;;;;;;;9.43;8.52;;;24.20;71.50;;;;;;5075063;28;20145;-79
2021/07/06 09:42:02;;;;;;;9.63;8.73;;;24.20;71.70;;;;;;5058339;28;20165;-79
2021/07/06 09:44:31;;;;;;;10.40;9.40;;;24.10;72.00;;;;;;5059306;28;20240;-80
2021/07/06 09:47:02;;;;;;;10.30;9.25;;;24.20;71.60;;;;;;5058108;28;20265;-80
2021/07/06 09:49:30;;;;;;;10.32;9.32;;;24.10;71.70;;;;;;5058553;28;20620;-79
2021/07/06 09:51:57;;;;;;;10.27;8.85;;;24.20;71.60;;;;;;5058776;28;20176;-80
2021/07/06 09:54:25;;;;;;;11.25;9.43;;;24.10;71.70;;;;;;5074940;28;20244;-81
2021/07/06 09:56:51;;;;;;;10.38;9.27;;;24.20;71.50;;;;;;5058373;28;20634;-81
2021/07/06 09:59:17;;;;;;;10.00;8.57;;;24.30;71.40;;;;;;5075285;28;20165;-78
2021/07/06 10:02:00;;;;;;;9.63;8.73;;;24.20;71.60;;;;;;5058548;28;20240;-79
2021/07/06 10:04:26;;;;;;;10.10;9.10;;;24.30;71.00;;;;;;5075133;28;20637;-82
2021/07/06 10:06:55;;;;;;;10.18;9.07;;;24.30;70.90;;;;;;5076320;28;20165;-82
2021/07/06 10:09:21;;;;;;;10.60;9.50;;;24.30;71.20;;;;;;5075988;28;20601;-80
2021/07/06 10:11:48;;;;;;;10.50;9.45;;;24.30;71.20;;;;;;5058618;28;20207;-81
2021/07/06 10:14:14;;;;;;;10.20;9.20;;;24.30;71.20;;;;;;5074746;28;20191;-79
2021/07/06 10:16:40;;;;;;;9.90;9.00;;;24.30;71.10;;;;;;5075244;28;20279;-79
2021/07/06 10:19:07;;;;;;;10.77;9.68;;;24.30;71.00;;;;;;5074643;28;20150;-80
2021/07/06 10:21:33;;;;;;;10.35;9.25;;;24.20;70.90;;;;;;5057740;28;20161;-81
2021/07/06 10:24:04;;;;;;;10.25;9.20;;;24.30;70.90;;;;;;5074455;28;20149;-79
2021/07/06 10:26:30;;;;;;;10.13;9.18;;;24.30;70.70;;;;;;5074941;28;20158;-80
2021/07/06 10:28:55;;;;;;;10.07;9.07;;;24.30;70.60;;;;;;5076476;28;20236;-79
2021/07/06 10:31:22;;;;;;;11.00;9.80;;;24.30;70.70;;;;;;5058794;28;20526;-79
2021/07/06 10:33:48;;;;;;;11.15;10.05;;;24.30;70.60;;;;;;5058664;28;20679;-81
2021/07/06 10:36:16;;;;;;;9.40;8.50;;;24.40;70.70;;;;;;5108476;28;20237;-79
2021/07/06 10:38:47;;;;;;;10.00;9.00;;;24.30;70.50;;;;;;5074940;28;20169;-82
2021/07/06 10:41:21;;;;;;;10.95;9.88;;;24.30;70.60;;;;;;5058472;28;20158;-81
2021/07/06 10:43:50;;;;;;;11.00;9.90;;;24.30;70.60;;;;;;5074041;28;20161;-79
2021/07/06 10:46:30;;;;;;;10.93;9.90;;;24.30;70.40;;;;;;5057569;28;20188;-82
2021/07/06 10:49:02;;;;;;;10.90;9.80;;;24.30;70.60;;;;;;5074916;28;20168;-81
2021/07/06 10:51:45;;;;;;;10.98;9.88;;;24.30;70.10;;;;;;5074188;28;20635;-83
2021/07/06 10:54:12;;;;;;;10.32;9.40;;;24.40;70.10;;;;;;5057102;28;20277;-80
2021/07/06 10:56:42;;;;;;;11.38;10.23;;;24.40;69.90;;;;;;5057630;28;20184;-79
2021/07/06 10:59:19;;;;;;;10.73;9.73;;;24.40;69.90;;;;;;5090220;28;20175;-81
2021/07/06 11:01:58;;;;;;;12.23;10.98;;;24.40;69.70;;;;;;5057574;28;20664;-78
2021/07/06 11:04:53;;;;;;;11.57;9.77;;;24.40;69.80;;;;;;5090633;28;20165;-81
2021/07/06 11:07:42;;;;;;;11.20;10.10;;;24.40;69.70;;;;;;5061183;28;20157;-80
2021/07/06 11:10:09;;;;;;;11.18;10.07;;;24.40;69.50;;;;;;5090153;28;20644;-81
2021/07/06 11:12:36;;;;;;;11.10;10.00;;;24.40;69.70;;;;;;5107683;28;20254;-79
2021/07/06 11:15:04;;;;;;;11.48;10.32;;;24.40;69.40;;;;;;5074681;28;20149;-82
2021/07/06 11:17:44;;;;;;;11.60;10.35;;;24.50;69.40;;;;;;5090324;28;20224;-79
2021/07/06 11:20:17;;;;;;;11.68;10.40;;;24.50;69.10;;;;;;5073784;28;20153;-81
2021/07/06 11:22:46;;;;;;;11.35;10.25;;;24.50;69.30;;;;;;5090276;28;20173;-79
2021/07/06 11:25:22;;;;;;;11.95;10.68;;;24.50;68.90;;;;;;5090525;28;20638;-82
2021/07/06 11:28:01;;;;;;;11.20;10.02;;;24.50;68.90;;;;;;5091143;28;20168;-80
2021/07/06 11:30:30;;;;;;;11.85;10.65;;;24.50;68.90;;;;;;5107363;28;20176;-80
2021/07/06 11:33:14;;;;;;;12.27;10.52;;;24.50;68.80;;;;;;5072990;28;20158;-80
2021/07/06 11:35:47;;;;;;;11.05;9.90;;;24.50;68.80;;;;;;5075000;28;20226;-82
2021/07/06 11:38:18;;;;;;;12.32;10.90;;;24.60;68.50;;;;;;5072916;28;20235;-82
2021/07/06 11:40:47;;;;;;;12.27;10.65;;;24.50;68.50;;;;;;5106960;28;20176;-79
2021/07/06 11:43:14;;;;;;;12.30;11.05;;;24.50;68.90;;;;;;5089991;28;20164;-79
2021/07/06 11:45:40;;;;;;;11.80;10.60;;;24.40;69.10;;;;;;5106945;28;20154;-79
2021/07/06 11:48:08;;;;;;;12.07;10.88;;;24.50;69.00;;;;;;5106846;28;20524;-79
2021/07/06 11:50:34;;;;;;;11.95;10.68;;;24.50;68.80;;;;;;5073934;28;20157;-82
2021/07/06 11:53:00;;;;;;;11.60;10.50;;;24.50;68.50;;;;;;5074579;28;20235;-79
2021/07/06 11:55:27;;;;;;;12.38;10.68;;;24.50;68.30;;;;;;5107189;28;20632;-80
2021/07/06 11:57:55;;;;;;;11.80;10.65;;;24.60;68.10;;;;;;5107817;28;20193;-80
2021/07/06 12:00:22;;;;;;;12.57;11.27;;;24.60;68.30;;;;;;5090578;28;20187;-81
2021/07/06 12:02:49;;;;;;;12.25;10.80;;;24.60;68.20;;;;;;5090177;28;20169;-81
2021/07/06 12:05:16;;;;;;;13.48;11.85;;;24.70;67.70;;;;;;5107144;28;20252;-82
2021/07/06 12:07:42;;;;;;;14.50;11.77;;;24.60;67.70;;;;;;5072716;28;20587;-79
2021/07/06 12:10:09;;;;;;;12.13;10.82;;;24.60;67.90;;;;;;5074274;28;20165;-82
2021/07/06 12:12:36;;;;;;;12.82;11.35;;;24.60;67.80;;;;;;5073011;28;20600;-81
2021/07/06 12:15:02;;;;;;;13.93;11.40;;;24.60;67.60;;;;;;5089655;28;20262;-82
2021/07/06 12:17:29;;;;;;;13.52;11.25;;;24.60;67.60;;;;;;5089866;28;20228;-83
2021/07/06 12:19:57;;;;;;;13.90;12.15;;;24.60;67.70;;;;;;5089324;28;20169;-81
2021/07/06 12:22:23;;;;;;;13.63;12.15;;;24.60;67.70;;;;;;5073311;28;20236;-80
2021/07/06 12:24:49;;;;;;;13.23;11.77;;;24.50;67.60;;;;;;5088817;28;20606;-78
2021/07/06 12:27:17;;;;;;;13.20;11.77;;;24.60;67.60;;;;;;5072015;28;20655;-80
2021/07/06 12:29:43;;;;;;;12.57;11.38;;;24.60;67.70;;;;;;5105685;28;20153;-80
2021/07/06 12:32:12;;;;;;;13.45;11.70;;;24.60;67.30;;;;;;5106588;28;20207;-81
2021/07/06 12:34:41;;;;;;;13.30;11.00;;;24.60;67.40;;;;;;5105502;28;20154;-80
2021/07/06 12:37:09;;;;;;;13.82;11.95;;;24.60;67.30;;;;;;5106081;28;20602;-83
2021/07/06 12:39:36;;;;;;;13.35;11.95;;;24.60;67.20;;;;;;5105351;28;20567;-79
2021/07/06 12:42:18;;;;;;;13.85;12.27;;;24.60;67.10;;;;;;5088985;28;20158;-79
2021/07/06 12:44:46;;;;;;;12.85;11.45;;;24.60;67.40;;;;;;5089079;28;20173;-80